Portada
METAR-TAF:

METAR-TAF

Aeroports :

Malaca, Malàisia

latitud: 02-16N, longitud: 102-15E, altitud: 11 m

Observació

L'informe es va fer fa 1 hora i 18 minuts, a les 10:00 UTC
Vent 5 kt amb direcció variable
Temperatura 30°C
Humitat 75%
Pressió 1009 hPa
Visibilitat: 2500 m
calitja

METAR: WMKM 181000Z VRB05KT 2500 HZ VV/// 30/25 Q1009

Hora: 19:18 (11:18 UTC)

Pronòstic

L'informe es va fer fa 6 hores i 18 minuts, a les 05:00 UTC
Pronòstic vàlid del 18 a les 06 UTC al 19 a les 06 UTC
Vent 6 kt del Sud/Sud-Est
Visibilitat: 3000 m
Escasses núvols a una alçada de 2000 ft
calitja
Evolucionant progressivament
l' 18 a les 12 UTC al 18 a les 14 UTC
Vent 1 kt amb direcció variable
Escasses núvols a una alçada de 3000 ft

TAF: WMKM 180500Z 1806/1906 15006KT 3000 HZ FEW020 BECMG 1812/1814 VRB01KT FEW030

Observacions i pronòstics meteorològics de més de 4000 aeroports (METAR i TAF).

Les estacions disponibles són els punts grocs i vermells al mapa.

Posi el ratolí al punt desitjat per veure el nom de l'estació.

Feu clic per veure les observacions i els pronòstics meteorològics.

Per canviar el mapa: feu clic els botons verds amb una creu de color negre per apropar; al botó verd amb un guió per allunyar la imatge; o en les fletxes verdes per a mapes adjacents.


METAR-TAF: